sensor_id;sensor_type;location;lat;lon;timestamp;temperature;humidity
85509;DHT22;75919;48.506;8.946;2024-01-30T06:31:48;-0.30;99.90
85509;DHT22;75919;48.506;8.946;2024-01-30T06:34:13;-0.30;99.90
85509;DHT22;75919;48.506;8.946;2024-01-30T06:36:39;-0.30;99.90
85509;DHT22;75919;48.506;8.946;2024-01-30T06:39:05;-0.20;99.90
85509;DHT22;75919;48.506;8.946;2024-01-30T06:41:31;-0.20;99.90
85509;DHT22;75919;48.506;8.946;2024-01-30T06:43:56;-0.30;99.90
85509;DHT22;75919;48.506;8.946;2024-01-30T06:46:22;-0.20;99.90
85509;DHT22;75919;48.506;8.946;2024-01-30T06:48:48;-0.30;99.90
85509;DHT22;75919;48.506;8.946;2024-01-30T06:51:13;-0.20;99.90
85509;DHT22;75919;48.506;8.946;2024-01-30T06:53:39;-0.20;99.90
85509;DHT22;75919;48.506;8.946;2024-01-30T06:56:05;-0.10;99.90
85509;DHT22;75919;48.506;8.946;2024-01-30T06:58:31;-0.10;99.90
85509;DHT22;75919;48.506;8.946;2024-01-30T07:00:58;-0.10;99.90
85509;DHT22;75919;48.506;8.946;2024-01-30T07:03:24;0.00;99.90
85509;DHT22;75919;48.506;8.946;2024-01-30T07:05:50;-0.10;99.90
85509;DHT22;75919;48.506;8.946;2024-01-30T07:08:16;-0.20;99.90
85509;DHT22;75919;48.506;8.946;2024-01-30T07:10:44;-0.20;99.90
85509;DHT22;75919;48.506;8.946;2024-01-30T07:13:11;-0.10;99.90
85509;DHT22;75919;48.506;8.946;2024-01-30T07:15:37;0.00;99.90
85509;DHT22;75919;48.506;8.946;2024-01-30T07:18:03;0.00;99.90
85509;DHT22;75919;48.506;8.946;2024-01-30T07:20:30;0.10;99.90
85509;DHT22;75919;48.506;8.946;2024-01-30T07:23:00;0.20;99.90
85509;DHT22;75919;48.506;8.946;2024-01-30T07:25:25;0.20;99.90
85509;DHT22;75919;48.506;8.946;2024-01-30T07:27:56;0.30;99.90
85509;DHT22;75919;48.506;8.946;2024-01-30T07:30:23;0.20;99.90
85509;DHT22;75919;48.506;8.946;2024-01-30T07:32:48;0.30;99.90
85509;DHT22;75919;48.506;8.946;2024-01-30T07:35:14;0.20;99.90
85509;DHT22;75919;48.506;8.946;2024-01-30T07:37:40;0.20;99.90
85509;DHT22;75919;48.506;8.946;2024-01-30T07:40:06;0.10;99.90
85509;DHT22;75919;48.506;8.946;2024-01-30T07:42:33;0.40;99.90
85509;DHT22;75919;48.506;8.946;2024-01-30T07:45:00;0.40;99.90
85509;DHT22;75919;48.506;8.946;2024-01-30T07:47:26;0.40;99.90
85509;DHT22;75919;48.506;8.946;2024-01-30T07:49:51;0.60;99.90
85509;DHT22;75919;48.506;8.946;2024-01-30T07:52:18;0.60;99.90
85509;DHT22;75919;48.506;8.946;2024-01-30T07:54:43;0.60;99.90
85509;DHT22;75919;48.506;8.946;2024-01-30T07:57:09;0.70;99.90
85509;DHT22;75919;48.506;8.946;2024-01-30T07:59:35;0.80;99.90
85509;DHT22;75919;48.506;8.946;2024-01-30T08:02:00;0.90;99.90
85509;DHT22;75919;48.506;8.946;2024-01-30T08:04:26;1.00;99.90
85509;DHT22;75919;48.506;8.946;2024-01-30T08:06:52;1.00;99.90
85509;DHT22;75919;48.506;8.946;2024-01-30T08:09:18;1.10;99.90
85509;DHT22;75919;48.506;8.946;2024-01-30T08:11:44;1.10;99.90
85509;DHT22;75919;48.506;8.946;2024-01-30T08:14:09;1.20;99.90
85509;DHT22;75919;48.506;8.946;2024-01-30T08:16:35;1.30;99.90
85509;DHT22;75919;48.506;8.946;2024-01-30T08:19:01;1.40;99.90
85509;DHT22;75919;48.506;8.946;2024-01-30T08:21:26;1.40;99.90
85509;DHT22;75919;48.506;8.946;2024-01-30T08:23:52;1.50;99.90
85509;DHT22;75919;48.506;8.946;2024-01-30T08:26:18;1.60;99.90
85509;DHT22;75919;48.506;8.946;2024-01-30T08:28:43;1.60;99.90
85509;DHT22;75919;48.506;8.946;2024-01-30T08:31:10;1.70;99.90
85509;DHT22;75919;48.506;8.946;2024-01-30T08:33:37;1.70;99.90
85509;DHT22;75919;48.506;8.946;2024-01-30T08:36:03;1.80;99.90
85509;DHT22;75919;48.506;8.946;2024-01-30T08:38:29;1.80;99.90
85509;DHT22;75919;48.506;8.946;2024-01-30T08:40:55;1.80;99.90
85509;DHT22;75919;48.506;8.946;2024-01-30T08:43:20;1.90;99.90
85509;DHT22;75919;48.506;8.946;2024-01-30T08:45:46;1.90;99.90
85509;DHT22;75919;48.506;8.946;2024-01-30T08:48:12;1.90;99.90
85509;DHT22;75919;48.506;8.946;2024-01-30T08:50:39;2.00;99.90
85509;DHT22;75919;48.506;8.946;2024-01-30T08:53:04;2.10;99.90
85509;DHT22;75919;48.506;8.946;2024-01-30T08:55:30;2.10;99.90
85509;DHT22;75919;48.506;8.946;2024-01-30T08:57:56;2.30;99.90
85509;DHT22;75919;48.506;8.946;2024-01-30T09:00:21;2.40;99.90
85509;DHT22;75919;48.506;8.946;2024-01-30T09:02:47;2.50;99.90
85509;DHT22;75919;48.506;8.946;2024-01-30T09:05:12;2.60;99.90
85509;DHT22;75919;48.506;8.946;2024-01-30T09:07:38;2.70;99.90
85509;DHT22;75919;48.506;8.946;2024-01-30T09:10:04;2.80;99.90
85509;DHT22;75919;48.506;8.946;2024-01-30T09:12:30;2.90;99.90
85509;DHT22;75919;48.506;8.946;2024-01-30T09:14:56;3.00;99.90
85509;DHT22;75919;48.506;8.946;2024-01-30T09:17:21;3.10;99.90
85509;DHT22;75919;48.506;8.946;2024-01-30T09:19:47;3.30;99.90
85509;DHT22;75919;48.506;8.946;2024-01-30T09:22:13;3.40;99.90
85509;DHT22;75919;48.506;8.946;2024-01-30T09:24:38;3.40;99.90
85509;DHT22;75919;48.506;8.946;2024-01-30T09:27:05;3.40;99.90
85509;DHT22;75919;48.506;8.946;2024-01-30T09:29:31;3.50;99.90
85509;DHT22;75919;48.506;8.946;2024-01-30T09:31:59;3.60;99.90
85509;DHT22;75919;48.506;8.946;2024-01-30T09:34:25;3.60;99.90
85509;DHT22;75919;48.506;8.946;2024-01-30T09:36:51;3.60;99.90
85509;DHT22;75919;48.506;8.946;2024-01-30T09:39:16;3.70;99.90
85509;DHT22;75919;48.506;8.946;2024-01-30T09:41:49;3.60;99.90
85509;DHT22;75919;48.506;8.946;2024-01-30T09:44:17;3.80;99.90
85509;DHT22;75919;48.506;8.946;2024-01-30T09:46:47;3.80;99.90
85509;DHT22;75919;48.506;8.946;2024-01-30T09:49:13;3.90;99.90
85509;DHT22;75919;48.506;8.946;2024-01-30T09:51:40;4.00;99.90
85509;DHT22;75919;48.506;8.946;2024-01-30T09:54:08;4.10;99.90
85509;DHT22;75919;48.506;8.946;2024-01-30T09:56:35;4.10;99.90
85509;DHT22;75919;48.506;8.946;2024-01-30T09:59:01;4.20;99.90
85509;DHT22;75919;48.506;8.946;2024-01-30T10:01:26;4.20;99.90
85509;DHT22;75919;48.506;8.946;2024-01-30T10:03:53;4.30;99.90
85509;DHT22;75919;48.506;8.946;2024-01-30T10:06:22;4.40;99.90
85509;DHT22;75919;48.506;8.946;2024-01-30T10:08:50;4.50;99.90
85509;DHT22;75919;48.506;8.946;2024-01-30T10:11:15;4.60;99.90
85509;DHT22;75919;48.506;8.946;2024-01-30T10:13:41;4.60;99.90
85509;DHT22;75919;48.506;8.946;2024-01-30T10:16:07;4.60;99.90
85509;DHT22;75919;48.506;8.946;2024-01-30T10:18:32;4.70;99.90
85509;DHT22;75919;48.506;8.946;2024-01-30T10:20:59;4.70;99.90
85509;DHT22;75919;48.506;8.946;2024-01-30T10:23:25;4.80;99.90
85509;DHT22;75919;48.506;8.946;2024-01-30T10:25:51;4.80;99.90
85509;DHT22;75919;48.506;8.946;2024-01-30T10:28:17;4.80;99.90
85509;DHT22;75919;48.506;8.946;2024-01-30T10:30:43;4.80;99.90
85509;DHT22;75919;48.506;8.946;2024-01-30T10:33:10;4.80;99.90
85509;DHT22;75919;48.506;8.946;2024-01-30T10:35:35;4.90;99.90
85509;DHT22;75919;48.506;8.946;2024-01-30T10:38:01;5.10;99.90
85509;DHT22;75919;48.506;8.946;2024-01-30T10:40:29;5.20;99.90
85509;DHT22;75919;48.506;8.946;2024-01-30T10:42:55;5.20;99.90
85509;DHT22;75919;48.506;8.946;2024-01-30T10:45:22;5.30;99.90
85509;DHT22;75919;48.506;8.946;2024-01-30T10:47:54;5.40;99.90
85509;DHT22;75919;48.506;8.946;2024-01-30T10:50:23;5.50;99.90
85509;DHT22;75919;48.506;8.946;2024-01-30T10:52:50;5.80;99.90
85509;DHT22;75919;48.506;8.946;2024-01-30T10:55:16;6.10;99.90
85509;DHT22;75919;48.506;8.946;2024-01-30T10:57:43;6.40;99.90
85509;DHT22;75919;48.506;8.946;2024-01-30T11:00:12;6.60;99.90
85509;DHT22;75919;48.506;8.946;2024-01-30T11:02:46;6.60;99.90
85509;DHT22;75919;48.506;8.946;2024-01-30T11:05:12;6.80;99.90
85509;DHT22;75919;48.506;8.946;2024-01-30T11:07:39;6.80;99.90
85509;DHT22;75919;48.506;8.946;2024-01-30T11:10:08;7.00;99.90
85509;DHT22;75919;48.506;8.946;2024-01-30T11:12:38;7.00;99.90
85509;DHT22;75919;48.506;8.946;2024-01-30T11:15:11;7.00;99.90
85509;DHT22;75919;48.506;8.946;2024-01-30T11:20:27;7.40;99.90
85509;DHT22;75919;48.506;8.946;2024-01-30T11:22:56;7.70;99.90
85509;DHT22;75919;48.506;8.946;2024-01-30T11:25:23;8.00;99.90
85509;DHT22;75919;48.506;8.946;2024-01-30T11:27:55;8.50;99.90
85509;DHT22;75919;48.506;8.946;2024-01-30T11:30:31;9.10;99.90
85509;DHT22;75919;48.506;8.946;2024-01-30T11:33:11;9.80;98.30
85509;DHT22;75919;48.506;8.946;2024-01-30T11:35:44;9.50;97.20
85509;DHT22;75919;48.506;8.946;2024-01-30T11:38:14;9.10;98.20
85509;DHT22;75919;48.506;8.946;2024-01-30T11:40:40;8.80;99.80
85509;DHT22;75919;48.506;8.946;2024-01-30T11:43:08;8.80;99.90
85509;DHT22;75919;48.506;8.946;2024-01-30T11:45:35;8.50;99.90
85509;DHT22;75919;48.506;8.946;2024-01-30T11:48:02;8.20;99.90
85509;DHT22;75919;48.506;8.946;2024-01-30T11:50:33;8.10;99.90
85509;DHT22;75919;48.506;8.946;2024-01-30T11:53:02;8.10;99.90
85509;DHT22;75919;48.506;8.946;2024-01-30T11:55:30;8.10;99.90
85509;DHT22;75919;48.506;8.946;2024-01-30T11:57:57;8.00;99.90
85509;DHT22;75919;48.506;8.946;2024-01-30T12:00:23;7.80;99.90
85509;DHT22;75919;48.506;8.946;2024-01-30T12:02:53;7.70;99.90
85509;DHT22;75919;48.506;8.946;2024-01-30T12:05:23;7.60;99.90
85509;DHT22;75919;48.506;8.946;2024-01-30T12:07:49;7.60;99.90
85509;DHT22;75919;48.506;8.946;2024-01-30T12:10:15;7.50;99.90
85509;DHT22;75919;48.506;8.946;2024-01-30T12:12:46;7.50;99.90
85509;DHT22;75919;48.506;8.946;2024-01-30T12:15:13;7.60;99.90
85509;DHT22;75919;48.506;8.946;2024-01-30T12:17:40;7.70;99.90
85509;DHT22;75919;48.506;8.946;2024-01-30T12:22:42;7.90;99.90
85509;DHT22;75919;48.506;8.946;2024-01-30T12:25:15;8.10;99.90
85509;DHT22;75919;48.506;8.946;2024-01-30T12:27:47;8.20;99.90
85509;DHT22;75919;48.506;8.946;2024-01-30T12:30:16;8.30;99.90
85509;DHT22;75919;48.506;8.946;2024-01-30T12:32:43;8.40;99.90
85509;DHT22;75919;48.506;8.946;2024-01-30T12:35:18;8.50;99.90
85509;DHT22;75919;48.506;8.946;2024-01-30T12:37:45;8.70;99.90
85509;DHT22;75919;48.506;8.946;2024-01-30T12:40:11;8.70;99.90
85509;DHT22;75919;48.506;8.946;2024-01-30T12:42:43;8.80;99.90
85509;DHT22;75919;48.506;8.946;2024-01-30T12:45:09;9.00;99.90
85509;DHT22;75919;48.506;8.946;2024-01-30T12:47:35;9.10;99.90
85509;DHT22;75919;48.506;8.946;2024-01-30T12:50:00;9.00;99.90
85509;DHT22;75919;48.506;8.946;2024-01-30T12:52:26;9.00;99.90
85509;DHT22;75919;48.506;8.946;2024-01-30T12:54:52;9.00;99.90
85509;DHT22;75919;48.506;8.946;2024-01-30T12:57:18;8.80;99.90
85509;DHT22;75919;48.506;8.946;2024-01-30T12:59:44;8.80;99.90
85509;DHT22;75919;48.506;8.946;2024-01-30T13:02:11;8.70;99.90
85509;DHT22;75919;48.506;8.946;2024-01-30T13:04:37;8.80;99.90
85509;DHT22;75919;48.506;8.946;2024-01-30T13:07:03;8.90;99.90
85509;DHT22;75919;48.506;8.946;2024-01-30T13:09:30;9.10;99.90
85509;DHT22;75919;48.506;8.946;2024-01-30T13:11:57;9.20;99.90
85509;DHT22;75919;48.506;8.946;2024-01-30T13:14:22;9.10;99.90
85509;DHT22;75919;48.506;8.946;2024-01-30T13:16:48;9.30;99.90
85509;DHT22;75919;48.506;8.946;2024-01-30T13:19:14;9.40;99.90
85509;DHT22;75919;48.506;8.946;2024-01-30T13:21:39;9.40;99.90
85509;DHT22;75919;48.506;8.946;2024-01-30T13:24:05;9.60;99.90
85509;DHT22;75919;48.506;8.946;2024-01-30T13:26:34;9.70;99.90
85509;DHT22;75919;48.506;8.946;2024-01-30T13:29:00;9.70;99.90
85509;DHT22;75919;48.506;8.946;2024-01-30T13:31:25;9.80;99.90
85509;DHT22;75919;48.506;8.946;2024-01-30T13:33:53;9.80;99.90
85509;DHT22;75919;48.506;8.946;2024-01-30T13:36:18;9.80;99.90
85509;DHT22;75919;48.506;8.946;2024-01-30T13:38:44;10.00;99.90
85509;DHT22;75919;48.506;8.946;2024-01-30T13:41:10;10.00;99.90
85509;DHT22;75919;48.506;8.946;2024-01-30T13:43:35;10.20;99.90
85509;DHT22;75919;48.506;8.946;2024-01-30T13:46:01;10.20;99.90
85509;DHT22;75919;48.506;8.946;2024-01-30T13:48:27;10.20;99.90
85509;DHT22;75919;48.506;8.946;2024-01-30T13:50:53;10.40;97.70
85509;DHT22;75919;48.506;8.946;2024-01-30T13:53:19;10.30;99.90
85509;DHT22;75919;48.506;8.946;2024-01-30T13:55:45;10.50;97.70
85509;DHT22;75919;48.506;8.946;2024-01-30T13:58:11;10.50;98.60
85509;DHT22;75919;48.506;8.946;2024-01-30T14:00:36;10.60;97.30
85509;DHT22;75919;48.506;8.946;2024-01-30T14:03:02;10.60;96.80
85509;DHT22;75919;48.506;8.946;2024-01-30T14:05:28;10.80;93.90
85509;DHT22;75919;48.506;8.946;2024-01-30T14:07:54;10.70;95.10
85509;DHT22;75919;48.506;8.946;2024-01-30T14:10:20;11.00;89.70
85509;DHT22;75919;48.506;8.946;2024-01-30T14:12:46;11.10;90.40
85509;DHT22;75919;48.506;8.946;2024-01-30T14:15:13;11.20;89.20
85509;DHT22;75919;48.506;8.946;2024-01-30T14:17:40;11.10;92.60
85509;DHT22;75919;48.506;8.946;2024-01-30T14:20:06;10.80;95.40
85509;DHT22;75919;48.506;8.946;2024-01-30T14:22:33;10.70;97.10
85509;DHT22;75919;48.506;8.946;2024-01-30T14:25:03;10.80;96.50
85509;DHT22;75919;48.506;8.946;2024-01-30T14:27:29;10.80;96.60
85509;DHT22;75919;48.506;8.946;2024-01-30T14:29:56;10.70;97.50
85509;DHT22;75919;48.506;8.946;2024-01-30T14:32:22;10.60;97.40
85509;DHT22;75919;48.506;8.946;2024-01-30T14:34:49;10.70;97.60
85509;DHT22;75919;48.506;8.946;2024-01-30T14:37:15;10.70;97.90
85509;DHT22;75919;48.506;8.946;2024-01-30T14:39:40;10.70;98.70
85509;DHT22;75919;48.506;8.946;2024-01-30T14:42:06;10.50;99.80
85509;DHT22;75919;48.506;8.946;2024-01-30T14:44:32;10.50;99.00
85509;DHT22;75919;48.506;8.946;2024-01-30T14:46:59;10.50;98.40
85509;DHT22;75919;48.506;8.946;2024-01-30T14:49:25;10.50;97.80
85509;DHT22;75919;48.506;8.946;2024-01-30T14:51:51;10.50;96.60
85509;DHT22;75919;48.506;8.946;2024-01-30T14:54:16;10.40;96.40
85509;DHT22;75919;48.506;8.946;2024-01-30T14:56:42;10.50;95.30
85509;DHT22;75919;48.506;8.946;2024-01-30T14:59:08;10.40;96.10
85509;DHT22;75919;48.506;8.946;2024-01-30T15:01:33;10.40;96.10
85509;DHT22;75919;48.506;8.946;2024-01-30T15:03:59;10.40;96.00
85509;DHT22;75919;48.506;8.946;2024-01-30T15:06:25;10.20;96.70
85509;DHT22;75919;48.506;8.946;2024-01-30T15:08:52;10.20;96.10
85509;DHT22;75919;48.506;8.946;2024-01-30T15:11:17;10.10;96.80
85509;DHT22;75919;48.506;8.946;2024-01-30T15:13:43;10.00;96.40
85509;DHT22;75919;48.506;8.946;2024-01-30T15:16:09;10.00;96.80
85509;DHT22;75919;48.506;8.946;2024-01-30T15:18:35;10.00;96.90
85509;DHT22;75919;48.506;8.946;2024-01-30T15:21:00;9.90;97.90
85509;DHT22;75919;48.506;8.946;2024-01-30T15:23:26;9.70;98.40
85509;DHT22;75919;48.506;8.946;2024-01-30T15:25:52;9.80;98.50
85509;DHT22;75919;48.506;8.946;2024-01-30T15:28:17;9.70;99.20
85509;DHT22;75919;48.506;8.946;2024-01-30T15:30:44;9.60;99.60
85509;DHT22;75919;48.506;8.946;2024-01-30T15:33:10;9.50;99.60
85509;DHT22;75919;48.506;8.946;2024-01-30T15:35:36;9.50;98.90
85509;DHT22;75919;48.506;8.946;2024-01-30T15:38:05;9.60;99.10
85509;DHT22;75919;48.506;8.946;2024-01-30T15:40:34;9.60;99.00
85509;DHT22;75919;48.506;8.946;2024-01-30T15:43:00;9.60;99.30
85509;DHT22;75919;48.506;8.946;2024-01-30T15:45:26;9.50;99.20
85509;DHT22;75919;48.506;8.946;2024-01-30T15:47:51;9.40;99.80
85509;DHT22;75919;48.506;8.946;2024-01-30T15:50:17;9.40;99.70
85509;DHT22;75919;48.506;8.946;2024-01-30T15:52:43;9.40;99.80
85509;DHT22;75919;48.506;8.946;2024-01-30T15:55:08;9.40;99.30
85509;DHT22;75919;48.506;8.946;2024-01-30T15:57:34;9.30;99.90
85509;DHT22;75919;48.506;8.946;2024-01-30T16:00:00;9.20;99.90
85509;DHT22;75919;48.506;8.946;2024-01-30T16:02:26;9.20;99.90
85509;DHT22;75919;48.506;8.946;2024-01-30T16:04:53;9.10;99.90
85509;DHT22;75919;48.506;8.946;2024-01-30T16:07:19;9.20;99.90
85509;DHT22;75919;48.506;8.946;2024-01-30T16:09:44;9.10;99.90
85509;DHT22;75919;48.506;8.946;2024-01-30T16:12:10;9.00;99.90
85509;DHT22;75919;48.506;8.946;2024-01-30T16:14:36;9.10;99.90
85509;DHT22;75919;48.506;8.946;2024-01-30T16:17:02;9.00;99.90
85509;DHT22;75919;48.506;8.946;2024-01-30T16:19:28;9.00;99.90
85509;DHT22;75919;48.506;8.946;2024-01-30T16:21:54;8.90;99.90
85509;DHT22;75919;48.506;8.946;2024-01-30T16:24:19;8.90;99.90
85509;DHT22;75919;48.506;8.946;2024-01-30T16:26:48;8.90;99.90
85509;DHT22;75919;48.506;8.946;2024-01-30T16:29:14;8.90;99.90
85509;DHT22;75919;48.506;8.946;2024-01-30T16:31:40;8.80;99.90
85509;DHT22;75919;48.506;8.946;2024-01-30T16:34:05;8.80;99.90
85509;DHT22;75919;48.506;8.946;2024-01-30T16:36:31;8.70;99.90
85509;DHT22;75919;48.506;8.946;2024-01-30T16:38:56;8.70;99.90
85509;DHT22;75919;48.506;8.946;2024-01-30T16:41:24;8.70;99.90
85509;DHT22;75919;48.506;8.946;2024-01-30T16:43:51;8.60;99.90
85509;DHT22;75919;48.506;8.946;2024-01-30T16:46:16;8.60;99.90
85509;DHT22;75919;48.506;8.946;2024-01-30T16:48:42;8.60;99.90
85509;DHT22;75919;48.506;8.946;2024-01-30T16:51:08;8.60;99.90
85509;DHT22;75919;48.506;8.946;2024-01-30T16:53:33;8.70;99.90
85509;DHT22;75919;48.506;8.946;2024-01-30T16:55:59;8.60;99.90
85509;DHT22;75919;48.506;8.946;2024-01-30T16:58:25;8.50;99.90
85509;DHT22;75919;48.506;8.946;2024-01-30T17:00:50;8.40;99.90
85509;DHT22;75919;48.506;8.946;2024-01-30T17:03:16;8.70;99.90
85509;DHT22;75919;48.506;8.946;2024-01-30T17:05:42;8.70;99.90
85509;DHT22;75919;48.506;8.946;2024-01-30T17:08:08;8.60;99.90
85509;DHT22;75919;48.506;8.946;2024-01-30T17:10:33;8.60;99.90
85509;DHT22;75919;48.506;8.946;2024-01-30T17:12:59;8.50;99.90
85509;DHT22;75919;48.506;8.946;2024-01-30T17:15:25;8.50;99.90
85509;DHT22;75919;48.506;8.946;2024-01-30T17:17:51;8.50;99.90
85509;DHT22;75919;48.506;8.946;2024-01-30T17:20:19;8.60;99.90
85509;DHT22;75919;48.506;8.946;2024-01-30T17:22:45;8.50;99.90
85509;DHT22;75919;48.506;8.946;2024-01-30T17:25:11;8.70;99.90
85509;DHT22;75919;48.506;8.946;2024-01-30T17:27:37;8.50;99.90
85509;DHT22;75919;48.506;8.946;2024-01-30T17:30:03;8.60;99.90
85509;DHT22;75919;48.506;8.946;2024-01-30T17:32:30;8.70;99.90
85509;DHT22;75919;48.506;8.946;2024-01-30T17:34:56;8.60;99.90
85509;DHT22;75919;48.506;8.946;2024-01-30T17:37:22;8.50;99.90
85509;DHT22;75919;48.506;8.946;2024-01-30T17:39:48;8.80;99.90
85509;DHT22;75919;48.506;8.946;2024-01-30T17:42:14;9.00;99.50
85509;DHT22;75919;48.506;8.946;2024-01-30T17:44:40;9.00;99.40
85509;DHT22;75919;48.506;8.946;2024-01-30T17:47:06;8.90;99.90
85509;DHT22;75919;48.506;8.946;2024-01-30T17:49:35;8.70;99.90
85509;DHT22;75919;48.506;8.946;2024-01-30T17:52:01;8.80;99.90
85509;DHT22;75919;48.506;8.946;2024-01-30T17:54:27;8.60;99.90
85509;DHT22;75919;48.506;8.946;2024-01-30T17:56:53;8.60;99.90
85509;DHT22;75919;48.506;8.946;2024-01-30T17:59:18;8.70;99.90
85509;DHT22;75919;48.506;8.946;2024-01-30T18:01:49;8.70;99.90
85509;DHT22;75919;48.506;8.946;2024-01-30T18:04:15;8.70;99.90
85509;DHT22;75919;48.506;8.946;2024-01-30T18:06:53;8.70;99.90
85509;DHT22;75919;48.506;8.946;2024-01-30T18:09:23;8.60;99.90
85509;DHT22;75919;48.506;8.946;2024-01-30T18:11:50;8.70;99.90
85509;DHT22;75919;48.506;8.946;2024-01-30T18:14:16;8.80;99.90
85509;DHT22;75919;48.506;8.946;2024-01-30T18:16:41;8.70;99.90
85509;DHT22;75919;48.506;8.946;2024-01-30T18:19:07;8.50;99.90
85509;DHT22;75919;48.506;8.946;2024-01-30T18:21:33;8.40;99.90
85509;DHT22;75919;48.506;8.946;2024-01-30T18:23:59;8.20;99.90
85509;DHT22;75919;48.506;8.946;2024-01-30T18:26:25;8.30;99.90
85509;DHT22;75919;48.506;8.946;2024-01-30T18:28:54;8.30;99.90
85509;DHT22;75919;48.506;8.946;2024-01-30T18:31:25;8.30;99.90
85509;DHT22;75919;48.506;8.946;2024-01-30T18:33:51;8.40;99.90
85509;DHT22;75919;48.506;8.946;2024-01-30T18:36:18;8.30;99.90
85509;DHT22;75919;48.506;8.946;2024-01-30T18:38:48;8.10;99.90
85509;DHT22;75919;48.506;8.946;2024-01-30T18:41:15;8.10;99.90
85509;DHT22;75919;48.506;8.946;2024-01-30T18:43:41;8.10;99.90
85509;DHT22;75919;48.506;8.946;2024-01-30T18:46:07;8.10;99.90
85509;DHT22;75919;48.506;8.946;2024-01-30T18:48:34;8.20;99.90
85509;DHT22;75919;48.506;8.946;2024-01-30T18:51:00;8.20;99.90
85509;DHT22;75919;48.506;8.946;2024-01-30T18:53:26;8.10;99.90
85509;DHT22;75919;48.506;8.946;2024-01-30T18:55:52;8.10;99.90
85509;DHT22;75919;48.506;8.946;2024-01-30T18:58:17;8.10;99.90
85509;DHT22;75919;48.506;8.946;2024-01-30T19:00:43;8.10;99.90
85509;DHT22;75919;48.506;8.946;2024-01-30T19:03:09;8.10;99.90
85509;DHT22;75919;48.506;8.946;2024-01-30T19:05:35;8.10;99.90
85509;DHT22;75919;48.506;8.946;2024-01-30T19:08:02;8.00;99.90
85509;DHT22;75919;48.506;8.946;2024-01-30T19:10:28;7.90;99.90
85509;DHT22;75919;48.506;8.946;2024-01-30T19:12:54;7.70;99.90
85509;DHT22;75919;48.506;8.946;2024-01-30T19:15:20;7.70;99.90
85509;DHT22;75919;48.506;8.946;2024-01-30T19:17:46;7.70;99.90
85509;DHT22;75919;48.506;8.946;2024-01-30T19:20:11;7.70;99.90
85509;DHT22;75919;48.506;8.946;2024-01-30T19:22:37;7.70;99.90
85509;DHT22;75919;48.506;8.946;2024-01-30T19:25:04;7.60;99.90
85509;DHT22;75919;48.506;8.946;2024-01-30T19:27:32;7.70;99.90
85509;DHT22;75919;48.506;8.946;2024-01-30T19:29:58;7.60;99.90
85509;DHT22;75919;48.506;8.946;2024-01-30T19:32:24;7.50;99.90
85509;DHT22;75919;48.506;8.946;2024-01-30T19:34:50;7.50;99.90
85509;DHT22;75919;48.506;8.946;2024-01-30T19:37:18;7.50;99.90
85509;DHT22;75919;48.506;8.946;2024-01-30T19:39:47;7.40;99.90
85509;DHT22;75919;48.506;8.946;2024-01-30T19:42:14;7.30;99.90
85509;DHT22;75919;48.506;8.946;2024-01-30T19:44:39;7.30;99.90
85509;DHT22;75919;48.506;8.946;2024-01-30T19:47:05;7.30;99.90
85509;DHT22;75919;48.506;8.946;2024-01-30T19:49:38;7.40;99.90
85509;DHT22;75919;48.506;8.946;2024-01-30T19:52:07;7.40;99.90
85509;DHT22;75919;48.506;8.946;2024-01-30T19:54:34;7.40;99.90
85509;DHT22;75919;48.506;8.946;2024-01-30T19:57:01;7.60;99.90
85509;DHT22;75919;48.506;8.946;2024-01-30T19:59:28;7.60;99.90
85509;DHT22;75919;48.506;8.946;2024-01-30T20:01:54;7.60;99.90
85509;DHT22;75919;48.506;8.946;2024-01-30T20:04:20;7.50;99.90
85509;DHT22;75919;48.506;8.946;2024-01-30T20:06:45;7.60;99.90
85509;DHT22;75919;48.506;8.946;2024-01-30T20:09:13;7.50;99.90
85509;DHT22;75919;48.506;8.946;2024-01-30T20:11:40;7.50;99.90
85509;DHT22;75919;48.506;8.946;2024-01-30T20:14:06;7.40;99.90
85509;DHT22;75919;48.506;8.946;2024-01-30T20:16:37;7.30;99.90
85509;DHT22;75919;48.506;8.946;2024-01-30T20:19:04;7.30;99.90
85509;DHT22;75919;48.506;8.946;2024-01-30T20:21:30;7.30;99.90
85509;DHT22;75919;48.506;8.946;2024-01-30T20:23:55;7.30;99.90
85509;DHT22;75919;48.506;8.946;2024-01-30T20:26:21;7.20;99.90
85509;DHT22;75919;48.506;8.946;2024-01-30T20:28:46;7.20;99.90
